Portada
METAR-TAF:

METAR-TAF

Aeropuertos :

Aeropuerto Internacional de Seychelles

Victoria, Mahé, Seychelles

latitud: 04-40S, longitud: 055-31E, altitud: 3 m

Observación

El informe se hizo hace 11 minutos, a las 04:00 UTC
Viento 3 kt del norte, variando entre oeste y noreste
Temperatura 29°C
Humedad 74%
Presión 1014 hPa
Visibilidad 10 km o más
Escasas nubes a una altura de 1700 ft, Cumulonimbus.
Escasas nubes a una altura de 1800 ft

METAR: FSIA 220400Z 35003KT 260V040 9999 FEW017CB FEW018 29/24 Q1014 NOSIG

Hora: 08:11 (04:11 UTC)

Pronóstico

El informe se hizo hace 5 horas y 7 minutos, a las 23:04 UTC
Pronóstico válido del 22 a las 00 UTC al 22 a las 24 UTC
Viento 5 kt con dirección variable
Visibilidad 10 km o más
Nubes dispersas a una altura de 2100 ft

TAF: FSIA 212304Z 2200/2224 VRB05KT 9999 SCT021

Observaciones y pronósticos meteorológicos de más de 4000 aeropuertos (mensajes METAR y TAF).

Los puntos amarillos y rojos representan las estaciones disponibles.

Ponga el ratón en el punto deseado para ver el nombre de la estación.

Haga clic para ver las observaciones y los pronósticos meteorológicos.

Para cambiar el mapa : haga clic en los botones verdes con una cruz de color negro para hacer un zoom, en el botón verde con un guión para alejar o en las flechas verdes para mapas adyacentes.


METAR-TAF: